Time;durP1;ratioP1;P1;durP2;ratioP2;P2;SDS_P1;SDS_P2;PMS_P1;PMS_P2;Temp;Humidity;BMP_temperature;BMP_pressure;BME280_temperature;BME280_humidity;BME280_pressure;Samples;Min_cycle;Max_cycle;Signal;HPM_P1;HPM_P2
2023/04/06 00:01:39;;;;;;;7.30;4.40;;;2.90;99.90;;;;;;5033178;28;20120;-81
2023/04/06 00:04:06;;;;;;;7.53;4.38;;;3.00;99.90;;;;;;5033105;28;20041;-81
2023/04/06 00:06:32;;;;;;;6.75;4.50;;;2.90;99.90;;;;;;5032388;28;20052;-80
2023/04/06 00:08:59;;;;;;;9.35;5.95;;;3.00;99.90;;;;;;5016254;28;20448;-81
2023/04/06 00:11:25;;;;;;;10.77;5.95;;;3.00;99.90;;;;;;5032684;28;20401;-80
2023/04/06 00:13:51;;;;;;;8.10;5.15;;;2.80;99.90;;;;;;5015941;28;20041;-81
2023/04/06 00:16:17;;;;;;;7.38;4.75;;;2.80;99.90;;;;;;5016393;28;20064;-83
2023/04/06 00:18:43;;;;;;;7.93;4.68;;;2.70;99.90;;;;;;5032791;28;20042;-80
2023/04/06 00:21:13;;;;;;;8.65;5.68;;;2.70;99.90;;;;;;5032641;28;20049;-81
2023/04/06 00:23:39;;;;;;;9.13;5.20;;;2.80;99.90;;;;;;4996814;28;20050;-81
2023/04/06 00:26:05;;;;;;;8.23;5.70;;;2.80;99.90;;;;;;5012986;28;20057;-81
2023/04/06 00:28:31;;;;;;;8.68;5.10;;;2.80;99.90;;;;;;5012578;28;20054;-81
2023/04/06 00:30:56;;;;;;;7.82;4.80;;;2.80;99.90;;;;;;5012904;28;20050;-81
2023/04/06 00:33:23;;;;;;;8.20;4.88;;;2.70;99.90;;;;;;5012656;28;20371;-81
2023/04/06 00:35:49;;;;;;;8.70;4.80;;;2.70;99.90;;;;;;5012920;28;20108;-81
2023/04/06 00:38:16;;;;;;;8.13;5.07;;;2.70;99.90;;;;;;5012586;28;20053;-80
2023/04/06 00:40:44;;;;;;;8.93;5.60;;;2.70;99.90;;;;;;5012900;28;20147;-80
2023/04/06 00:43:11;;;;;;;8.15;4.93;;;2.70;99.90;;;;;;5012448;28;20061;-81
2023/04/06 00:45:41;;;;;;;7.85;5.05;;;2.70;99.90;;;;;;5012765;28;20058;-81
2023/04/06 00:48:08;;;;;;;7.28;4.60;;;2.70;99.90;;;;;;4996389;28;20085;-80
2023/04/06 00:50:34;;;;;;;8.00;5.35;;;2.70;99.90;;;;;;5012830;28;20056;-81
2023/04/06 00:53:01;;;;;;;7.68;5.20;;;2.70;99.90;;;;;;5027770;28;20046;-81
2023/04/06 00:55:27;;;;;;;9.20;5.20;;;2.70;99.90;;;;;;5015250;28;20052;-81
2023/04/06 00:57:54;;;;;;;8.95;5.22;;;2.70;99.90;;;;;;5031991;28;20416;-81
2023/04/06 01:00:20;;;;;;;8.90;5.90;;;2.70;99.90;;;;;;5015846;28;20414;-81
2023/04/06 01:02:47;;;;;;;8.05;5.10;;;2.70;99.90;;;;;;5032410;28;20053;-80
2023/04/06 01:05:13;;;;;;;9.90;5.75;;;2.70;99.90;;;;;;5032286;28;20049;-81
2023/04/06 01:07:39;;;;;;;8.95;5.18;;;2.70;99.90;;;;;;5032015;28;20053;-81
2023/04/06 01:10:05;;;;;;;7.40;5.20;;;2.60;99.90;;;;;;5032243;28;20045;-80
2023/04/06 01:12:31;;;;;;;7.95;5.18;;;2.60;99.90;;;;;;5015869;28;20046;-80
2023/04/06 01:14:57;;;;;;;8.07;5.20;;;2.60;99.90;;;;;;4999211;28;20389;-81
2023/04/06 01:17:22;;;;;;;9.10;5.80;;;2.50;99.90;;;;;;5032236;28;20057;-80
2023/04/06 01:19:51;;;;;;;10.05;5.50;;;2.50;99.90;;;;;;5032146;28;20050;-80
2023/04/06 01:22:17;;;;;;;8.20;5.53;;;2.50;99.90;;;;;;5015700;28;20053;-80
2023/04/06 01:24:43;;;;;;;9.32;5.95;;;2.50;99.90;;;;;;5032116;28;20132;-81
2023/04/06 01:27:09;;;;;;;8.88;5.70;;;2.50;99.90;;;;;;5035305;28;20557;-81
2023/04/06 01:29:35;;;;;;;8.32;5.55;;;2.50;99.90;;;;;;5035748;28;20057;-80
2023/04/06 01:32:01;;;;;;;7.50;5.32;;;2.40;99.90;;;;;;5035465;28;20049;-81
2023/04/06 01:34:26;;;;;;;8.82;6.03;;;2.40;99.90;;;;;;5019058;28;20049;-81
2023/04/06 01:36:52;;;;;;;10.02;6.00;;;2.40;99.90;;;;;;5036524;28;20037;-81
2023/04/06 01:39:21;;;;;;;9.32;5.50;;;2.30;99.90;;;;;;5019440;28;20103;-81
2023/04/06 01:41:49;;;;;;;9.68;5.65;;;2.30;99.90;;;;;;5018864;28;20053;-81
2023/04/06 01:44:17;;;;;;;9.05;5.30;;;2.30;99.90;;;;;;5035721;28;20442;-80
2023/04/06 01:46:43;;;;;;;7.90;5.47;;;2.30;99.90;;;;;;5018800;28;20072;-81
2023/04/06 01:49:09;;;;;;;8.15;5.20;;;2.30;99.90;;;;;;5002676;28;20528;-81
2023/04/06 01:51:35;;;;;;;8.75;5.85;;;2.30;99.90;;;;;;5035269;28;20081;-81
2023/04/06 01:54:00;;;;;;;8.95;5.28;;;2.30;99.90;;;;;;5035042;28;20052;-81
2023/04/06 01:56:26;;;;;;;9.82;5.45;;;2.30;99.90;;;;;;5018617;28;20054;-81
2023/04/06 01:58:52;;;;;;;10.25;5.90;;;2.20;99.90;;;;;;5018922;28;20053;-81
2023/04/06 02:01:17;;;;;;;8.35;5.47;;;2.20;99.90;;;;;;5035225;28;20374;-80
2023/04/06 02:03:43;;;;;;;9.20;6.05;;;2.10;99.90;;;;;;5035296;28;20080;-81
2023/04/06 02:06:09;;;;;;;8.93;6.00;;;2.10;99.90;;;;;;5018529;28;20057;-81
2023/04/06 02:08:35;;;;;;;9.13;5.88;;;2.10;99.90;;;;;;5002450;28;20037;-81
2023/04/06 02:11:01;;;;;;;8.48;5.65;;;2.00;99.90;;;;;;5018750;28;20054;-81
2023/04/06 02:13:26;;;;;;;9.95;6.18;;;2.00;99.90;;;;;;5018535;28;20045;-81
2023/04/06 02:15:52;;;;;;;11.20;6.38;;;2.00;99.90;;;;;;5001736;28;20094;-81
2023/04/06 02:18:18;;;;;;;9.85;6.80;;;2.00;99.90;;;;;;5018355;28;20056;-81
2023/04/06 02:20:44;;;;;;;9.82;6.25;;;2.00;99.90;;;;;;5035012;28;20053;-81
2023/04/06 02:23:11;;;;;;;10.80;6.80;;;1.90;99.90;;;;;;5018385;28;20112;-81
2023/04/06 02:25:36;;;;;;;10.15;6.40;;;1.90;99.90;;;;;;5034891;28;20053;-81
2023/04/06 02:28:02;;;;;;;12.30;6.68;;;2.00;99.90;;;;;;5018355;28;20052;-80
2023/04/06 02:30:29;;;;;;;9.77;6.50;;;2.00;99.90;;;;;;5051368;28;20489;-81
2023/04/06 02:32:55;;;;;;;11.68;6.50;;;2.60;99.90;;;;;;5034688;28;20505;-80
2023/04/06 02:35:21;;;;;;;11.98;6.90;;;2.00;99.90;;;;;;5018224;28;20053;-81
2023/04/06 02:37:46;;;;;;;11.38;6.65;;;2.00;99.90;;;;;;5034282;28;20509;-81
2023/04/06 02:40:14;;;;;;;11.80;6.93;;;1.90;99.90;;;;;;5001638;28;20133;-80
2023/04/06 02:42:40;;;;;;;10.25;7.35;;;1.90;99.90;;;;;;5034536;28;20045;-81
2023/04/06 02:45:06;;;;;;;11.18;6.95;;;1.90;99.90;;;;;;5051200;28;20095;-82
2023/04/06 02:47:33;;;;;;;12.00;7.35;;;1.90;99.90;;;;;;5033987;28;20056;-80
2023/04/06 02:49:58;;;;;;;11.10;6.95;;;1.90;99.90;;;;;;5051046;28;20045;-81
2023/04/06 02:52:24;;;;;;;11.13;7.70;;;1.90;99.90;;;;;;5017917;28;20359;-81
2023/04/06 02:54:51;;;;;;;10.63;7.22;;;1.80;99.90;;;;;;5017479;28;20053;-81
2023/04/06 02:57:17;;;;;;;10.98;7.30;;;1.80;99.90;;;;;;5034023;28;20053;-80
2023/04/06 02:59:42;;;;;;;10.75;7.00;;;1.80;99.90;;;;;;5017870;28;20062;-80
2023/04/06 03:02:08;;;;;;;13.63;6.68;;;1.90;99.90;;;;;;5034189;28;20056;-80
2023/04/06 03:04:34;;;;;;;11.23;7.20;;;1.90;99.90;;;;;;5034073;28;20052;-81
2023/04/06 03:07:00;;;;;;;10.50;6.45;;;1.80;99.90;;;;;;5017493;28;20619;-81
2023/04/06 03:09:27;;;;;;;11.75;6.85;;;1.80;99.90;;;;;;5034081;28;20041;-81
2023/04/06 03:11:53;;;;;;;9.77;6.90;;;1.80;99.90;;;;;;5034008;28;20057;-80
2023/04/06 03:14:21;;;;;;;10.40;6.93;;;1.80;99.90;;;;;;5017176;28;20045;-80
2023/04/06 03:16:48;;;;;;;9.35;6.57;;;1.80;99.90;;;;;;5017413;28;20050;-80
2023/04/06 03:19:14;;;;;;;11.00;7.00;;;1.80;99.90;;;;;;5033882;28;20370;-80
2023/04/06 03:21:41;;;;;;;11.02;7.40;;;1.00;99.90;;;;;;5033077;28;20505;-80
2023/04/06 03:24:07;;;;;;;10.40;7.20;;;1.70;99.90;;;;;;5017307;28;20042;-82
2023/04/06 03:26:33;;;;;;;11.35;6.72;;;1.70;99.90;;;;;;5033434;28;20049;-81
2023/04/06 03:28:59;;;;;;;10.18;6.72;;;1.70;99.90;;;;;;5033674;28;20049;-81
2023/04/06 03:31:25;;;;;;;10.60;6.93;;;1.70;99.90;;;;;;5033558;28;20417;-81
2023/04/06 03:33:51;;;;;;;12.55;7.03;;;1.70;99.90;;;;;;5033130;28;20519;-81
2023/04/06 03:36:17;;;;;;;10.32;7.28;;;1.60;99.90;;;;;;5016933;28;20089;-81
2023/04/06 03:38:43;;;;;;;11.48;6.55;;;1.60;99.90;;;;;;5016739;28;20120;-80
2023/04/06 03:41:08;;;;;;;10.13;6.82;;;1.60;99.90;;;;;;5017007;28;20152;-81
2023/04/06 03:43:34;;;;;;;8.88;6.32;;;1.60;99.90;;;;;;5016864;28;20045;-81
2023/04/06 03:46:00;;;;;;;11.73;6.28;;;1.60;99.90;;;;;;5016888;28;20049;-81
2023/04/06 03:48:26;;;;;;;11.00;6.57;;;1.60;99.90;;;;;;5015971;28;20085;-80
2023/04/06 03:50:51;;;;;;;10.00;6.70;;;1.60;99.90;;;;;;5033174;28;20052;-80
2023/04/06 03:53:17;;;;;;;10.43;7.13;;;1.60;99.90;;;;;;5033113;28;20049;-80
2023/04/06 03:55:43;;;;;;;11.63;8.45;;;1.60;99.90;;;;;;5033084;28;20057;-81
2023/04/06 03:58:09;;;;;;;11.95;7.78;;;1.50;99.90;;;;;;5032737;28;20378;-81
2023/04/06 04:00:35;;;;;;;12.80;7.32;;;1.40;99.90;;;;;;5033121;28;20045;-81
2023/04/06 04:03:02;;;;;;;11.18;7.30;;;1.40;99.90;;;;;;5033060;28;20076;-81
2023/04/06 04:05:28;;;;;;;11.10;7.13;;;1.40;99.90;;;;;;5032942;28;20084;-81
2023/04/06 04:07:54;;;;;;;11.55;7.50;;;1.30;99.90;;;;;;5032691;28;20049;-81
2023/04/06 04:10:19;;;;;;;11.30;7.47;;;1.30;99.90;;;;;;5016336;28;20053;-81
2023/04/06 04:12:45;;;;;;;11.38;7.35;;;1.30;99.90;;;;;;5016359;28;20045;-81
2023/04/06 04:15:11;;;;;;;10.82;7.28;;;1.30;99.90;;;;;;5016359;28;20092;-81
2023/04/06 04:17:37;;;;;;;11.18;7.13;;;1.20;99.90;;;;;;5032772;28;20080;-81
2023/04/06 04:20:03;;;;;;;11.32;6.90;;;1.30;99.90;;;;;;5032761;28;20053;-81
2023/04/06 04:22:28;;;;;;;11.88;7.50;;;1.30;99.90;;;;;;5016341;28;20045;-80
2023/04/06 04:24:54;;;;;;;10.27;6.90;;;1.30;99.90;;;;;;5032636;28;20119;-81
2023/04/06 04:27:20;;;;;;;11.93;6.88;;;1.30;99.90;;;;;;5033751;28;20052;-82
2023/04/06 04:29:46;;;;;;;10.75;6.95;;;1.40;99.90;;;;;;4983372;28;20140;-82
2023/04/06 04:32:12;;;;;;;11.18;6.70;;;1.40;99.90;;;;;;5032640;28;20426;-80
2023/04/06 04:34:40;;;;;;;11.15;6.65;;;1.40;99.90;;;;;;5032283;28;20053;-81
2023/04/06 04:37:08;;;;;;;10.80;7.05;;;1.40;99.90;;;;;;5016159;28;20131;-81
2023/04/06 04:39:34;;;;;;;12.63;7.78;;;1.40;99.90;;;;;;5016281;28;20073;-82
2023/04/06 04:42:00;;;;;;;10.50;7.45;;;1.40;99.90;;;;;;5015770;28;20053;-81
2023/04/06 04:44:25;;;;;;;11.73;7.57;;;1.40;99.90;;;;;;5032537;28;20119;-81
2023/04/06 04:46:52;;;;;;;10.75;7.22;;;1.30;99.90;;;;;;5032210;28;20053;-81
2023/04/06 04:49:17;;;;;;;11.25;8.00;;;1.30;99.90;;;;;;5032477;28;20053;-81
2023/04/06 04:51:43;;;;;;;11.60;8.05;;;1.30;99.90;;;;;;5032389;28;20492;-81
2023/04/06 04:54:09;;;;;;;14.45;7.78;;;1.20;99.90;;;;;;5032142;28;20042;-82
2023/04/06 04:56:35;;;;;;;11.00;7.65;;;1.20;99.90;;;;;;5032009;28;20054;-82
2023/04/06 04:59:00;;;;;;;11.38;7.68;;;1.10;99.90;;;;;;5032418;28;20465;-81
2023/04/06 05:01:26;;;;;;;11.25;7.72;;;1.10;99.90;;;;;;5034463;28;20103;-81
2023/04/06 05:03:52;;;;;;;11.88;7.97;;;1.10;99.90;;;;;;5019586;28;20061;-81
2023/04/06 05:06:19;;;;;;;12.82;7.70;;;1.10;99.90;;;;;;5019897;28;20171;-81
2023/04/06 05:08:45;;;;;;;12.40;8.15;;;1.00;99.90;;;;;;5019987;28;20128;-81
2023/04/06 05:11:11;;;;;;;10.98;8.05;;;1.10;99.90;;;;;;5036253;28;20512;-82
2023/04/06 05:13:37;;;;;;;13.85;8.35;;;1.10;99.90;;;;;;5019664;28;20085;-82
2023/04/06 05:16:03;;;;;;;12.93;8.45;;;1.00;99.90;;;;;;5019808;28;20084;-81
2023/04/06 05:18:28;;;;;;;10.82;8.10;;;1.00;99.90;;;;;;5019764;28;20148;-81
2023/04/06 05:20:54;;;;;;;12.60;8.23;;;1.00;99.90;;;;;;5036087;28;20049;-81
2023/04/06 05:23:20;;;;;;;13.23;8.50;;;0.90;99.90;;;;;;5019572;28;20050;-81
2023/04/06 05:25:46;;;;;;;12.18;8.43;;;1.00;99.90;;;;;;5036070;28;20041;-82
2023/04/06 05:28:15;;;;;;;12.73;8.23;;;1.00;99.90;;;;;;5019485;28;20049;-81
2023/04/06 05:30:42;;;;;;;11.18;7.88;;;1.10;99.90;;;;;;5035837;28;20450;-82
2023/04/06 05:33:09;;;;;;;14.60;8.50;;;1.10;99.90;;;;;;5052413;28;20049;-82
2023/04/06 05:35:35;;;;;;;13.95;8.60;;;1.20;99.90;;;;;;5019374;28;20049;-82
2023/04/06 05:38:01;;;;;;;13.00;8.52;;;1.20;99.90;;;;;;5019074;28;20401;-81
2023/04/06 05:40:27;;;;;;;14.02;8.98;;;1.20;99.90;;;;;;5035507;28;20096;-82
2023/04/06 05:42:53;;;;;;;12.77;8.73;;;1.20;99.90;;;;;;5002785;28;20049;-82
2023/04/06 05:45:20;;;;;;;13.38;8.55;;;1.20;99.90;;;;;;5019226;28;20445;-81
2023/04/06 05:47:46;;;;;;;12.75;9.25;;;1.20;99.90;;;;;;5052291;28;20436;-82
2023/04/06 05:50:15;;;;;;;13.00;8.95;;;1.30;99.90;;;;;;5035614;28;20041;-82
2023/04/06 05:52:42;;;;;;;12.18;8.60;;;1.40;99.90;;;;;;4999827;28;20132;-82
2023/04/06 05:55:09;;;;;;;12.65;8.52;;;1.50;99.90;;;;;;5015704;28;20054;-81
2023/04/06 05:57:35;;;;;;;12.10;8.63;;;1.60;99.90;;;;;;5015166;28;20190;-81
2023/04/06 06:00:01;;;;;;;11.65;9.00;;;1.70;99.90;;;;;;5015615;28;20137;-82
2023/04/06 06:02:26;;;;;;;12.73;8.48;;;1.80;99.90;;;;;;5015494;28;20049;-81
2023/04/06 06:04:52;;;;;;;12.45;8.45;;;1.80;99.90;;;;;;5015495;28;20046;-81
2023/04/06 06:07:18;;;;;;;13.25;8.90;;;2.00;99.90;;;;;;4999104;28;20054;-82
2023/04/06 06:09:44;;;;;;;12.23;8.68;;;2.20;99.90;;;;;;5015381;28;20049;-82
2023/04/06 06:12:10;;;;;;;12.63;8.80;;;2.40;99.90;;;;;;5014783;28;20394;-81
2023/04/06 06:14:35;;;;;;;12.25;8.00;;;2.70;99.90;;;;;;5014927;28;20135;-81
2023/04/06 06:17:01;;;;;;;11.55;8.30;;;3.10;99.90;;;;;;5015351;28;20103;-81
2023/04/06 06:19:27;;;;;;;11.40;7.78;;;3.40;99.90;;;;;;5015321;28;20057;-81
2023/04/06 06:21:55;;;;;;;13.15;8.45;;;3.60;99.90;;;;;;5021128;28;20543;-81
2023/04/06 06:24:21;;;;;;;11.27;8.25;;;3.80;99.90;;;;;;5035075;28;20053;-82
2023/04/06 06:26:48;;;;;;;12.95;8.50;;;4.10;99.90;;;;;;5018370;28;20440;-81
2023/04/06 06:29:14;;;;;;;12.90;7.88;;;4.30;99.90;;;;;;5018700;28;20053;-81
2023/04/06 06:31:40;;;;;;;12.18;7.80;;;4.50;99.90;;;;;;5018097;28;20429;-80
2023/04/06 06:34:06;;;;;;;12.18;7.82;;;4.70;99.90;;;;;;5034608;28;20066;-81
2023/04/06 06:36:33;;;;;;;11.02;7.60;;;4.80;99.90;;;;;;5034574;28;20049;-81
2023/04/06 06:39:00;;;;;;;12.35;8.63;;;4.90;99.90;;;;;;5018001;28;20125;-81
2023/04/06 06:41:26;;;;;;;11.90;7.85;;;5.00;99.90;;;;;;5034665;28;20127;-81
2023/04/06 06:43:52;;;;;;;12.48;8.00;;;5.20;99.90;;;;;;5034504;28;20472;-82
2023/04/06 06:46:17;;;;;;;11.52;7.70;;;5.30;99.90;;;;;;5034062;28;20132;-81
2023/04/06 06:48:43;;;;;;;11.38;7.60;;;5.50;99.90;;;;;;5018084;28;20189;-81
2023/04/06 06:51:11;;;;;;;11.50;6.70;;;5.70;99.90;;;;;;5017984;28;20390;-81
2023/04/06 06:53:37;;;;;;;11.52;7.03;;;5.90;99.90;;;;;;5014499;28;20129;-80
2023/04/06 06:56:03;;;;;;;10.27;7.38;;;6.10;99.90;;;;;;5014631;28;20181;-81
2023/04/06 06:58:29;;;;;;;12.40;8.15;;;6.20;99.90;;;;;;5014072;28;20127;-82
2023/04/06 07:01:00;;;;;;;11.90;8.35;;;6.40;99.90;;;;;;4998202;28;20049;-82
2023/04/06 07:03:26;;;;;;;12.98;8.02;;;6.70;99.90;;;;;;5014245;28;20490;-82
2023/04/06 07:05:55;;;;;;;11.85;7.60;;;7.00;99.50;;;;;;5014318;28;20061;-82
2023/04/06 07:08:22;;;;;;;11.98;8.27;;;7.20;97.00;;;;;;4998067;28;20054;-82
2023/04/06 07:10:48;;;;;;;11.48;7.88;;;7.50;98.10;;;;;;4997933;28;20141;-83
2023/04/06 07:13:21;;;;;;;11.32;7.85;;;7.70;97.10;;;;;;5014209;28;20045;-83
2023/04/06 07:15:47;;;;;;;11.77;7.80;;;7.90;96.10;;;;;;5014142;28;20394;-82
2023/04/06 07:18:13;;;;;;;12.00;8.20;;;8.30;95.70;;;;;;5014290;28;20100;-83
2023/04/06 07:20:39;;;;;;;13.60;8.68;;;8.60;95.30;;;;;;5014112;28;20085;-83
2023/04/06 07:23:05;;;;;;;12.00;7.95;;;8.90;94.50;;;;;;5029056;28;20120;-83
2023/04/06 07:25:31;;;;;;;11.10;7.72;;;8.90;92.20;;;;;;5001020;28;20485;-82
2023/04/06 07:27:56;;;;;;;11.52;8.32;;;9.00;92.50;;;;;;5000929;28;20056;-83
2023/04/06 07:30:24;;;;;;;13.18;8.38;;;9.10;92.20;;;;;;5033715;28;20092;-82
2023/04/06 07:32:50;;;;;;;11.95;8.13;;;9.20;92.00;;;;;;5017138;28;20408;-82
2023/04/06 07:35:16;;;;;;;11.30;8.18;;;9.00;91.50;;;;;;5033547;28;20049;-83
2023/04/06 07:37:42;;;;;;;13.13;9.10;;;8.90;91.00;;;;;;5033522;28;20389;-83
2023/04/06 07:40:08;;;;;;;12.15;8.35;;;8.70;92.30;;;;;;5033445;28;20045;-82
2023/04/06 07:42:34;;;;;;;14.55;8.40;;;8.60;92.60;;;;;;5033165;28;20053;-83
2023/04/06 07:45:00;;;;;;;13.38;8.43;;;8.70;94.30;;;;;;5033453;28;20053;-82
2023/04/06 07:47:26;;;;;;;13.27;8.90;;;8.60;92.90;;;;;;5033296;28;20393;-82
2023/04/06 07:49:54;;;;;;;12.00;8.73;;;8.60;94.80;;;;;;5033128;28;20537;-83
2023/04/06 07:52:20;;;;;;;13.15;8.77;;;8.70;94.00;;;;;;5033269;28;20057;-83
2023/04/06 07:54:46;;;;;;;12.13;8.95;;;8.80;94.20;;;;;;5032959;28;20435;-82
2023/04/06 07:57:11;;;;;;;15.68;9.35;;;8.80;94.20;;;;;;5033086;28;20064;-83
2023/04/06 07:59:37;;;;;;;12.32;8.90;;;8.80;93.70;;;;;;5033188;28;20053;-83
2023/04/06 08:02:03;;;;;;;11.95;8.95;;;8.90;93.10;;;;;;5016734;28;20398;-84
2023/04/06 08:04:29;;;;;;;13.55;9.07;;;9.00;93.30;;;;;;5000359;28;20049;-83
2023/04/06 08:06:55;;;;;;;12.48;9.40;;;9.10;91.90;;;;;;5016101;28;20115;-84
2023/04/06 08:09:21;;;;;;;12.07;8.98;;;9.20;94.20;;;;;;5032611;28;20059;-84
2023/04/06 08:11:48;;;;;;;14.35;8.52;;;9.30;93.20;;;;;;5016490;28;20046;-84
2023/04/06 08:14:15;;;;;;;14.07;9.38;;;9.40;91.40;;;;;;5032784;28;20049;-84
2023/04/06 08:16:41;;;;;;;12.63;9.30;;;9.60;91.70;;;;;;5016115;28;20099;-83
2023/04/06 08:19:09;;;;;;;14.30;8.65;;;9.60;90.30;;;;;;5000136;28;20047;-83
2023/04/06 08:21:35;;;;;;;12.93;9.27;;;9.70;90.70;;;;;;5016362;28;20085;-83
2023/04/06 08:24:01;;;;;;;13.43;9.13;;;9.80;90.70;;;;;;5032662;28;20140;-82
2023/04/06 08:26:27;;;;;;;12.13;8.85;;;10.00;91.00;;;;;;5032815;28;20084;-83
2023/04/06 08:28:53;;;;;;;12.40;8.73;;;10.20;90.80;;;;;;5016378;28;20044;-83
2023/04/06 08:31:19;;;;;;;12.05;9.13;;;10.30;85.00;;;;;;5016320;28;20049;-83
2023/04/06 08:33:45;;;;;;;12.57;8.30;;;10.30;88.10;;;;;;5016136;28;20130;-83
2023/04/06 08:36:13;;;;;;;12.75;8.30;;;10.30;84.20;;;;;;4999098;28;20052;-82
2023/04/06 08:38:39;;;;;;;12.90;9.15;;;10.40;83.00;;;;;;5032610;28;20049;-82
2023/04/06 08:41:10;;;;;;;15.90;9.00;;;10.40;82.10;;;;;;5032348;28;20135;-82
2023/04/06 08:43:48;;;;;;;13.63;8.55;;;10.50;81.30;;;;;;5032290;28;20048;-82
2023/04/06 08:46:15;;;;;;;15.73;8.95;;;10.60;79.60;;;;;;5032615;28;20548;-81
2023/04/06 08:48:42;;;;;;;12.60;8.43;;;10.60;81.00;;;;;;5016002;28;20053;-81
2023/04/06 08:51:09;;;;;;;12.98;8.40;;;10.70;82.50;;;;;;4999634;28;20478;-82
2023/04/06 08:53:35;;;;;;;11.70;7.30;;;10.80;77.40;;;;;;5032158;28;20048;-82
2023/04/06 08:56:03;;;;;;;14.20;8.50;;;10.40;76.60;;;;;;5016064;28;20144;-82
2023/04/06 08:58:36;;;;;;;11.45;7.75;;;11.00;78.90;;;;;;5048623;28;20081;-81
2023/04/06 09:01:06;;;;;;;13.25;8.73;;;11.10;75.20;;;;;;5031842;28;20489;-83
2023/04/06 09:03:38;;;;;;;13.50;8.63;;;11.10;77.70;;;;;;5032012;28;20060;-81
2023/04/06 09:06:04;;;;;;;11.10;6.57;;;11.20;78.00;;;;;;5015813;28;20053;-82
2023/04/06 09:08:30;;;;;;;10.27;5.78;;;11.30;73.10;;;;;;5032267;28;20375;-80
2023/04/06 09:10:56;;;;;;;8.95;5.68;;;11.40;72.40;;;;;;5033220;28;20132;-81
2023/04/06 09:13:22;;;;;;;12.82;8.93;;;11.30;73.30;;;;;;5048739;28;20049;-81
2023/04/06 09:16:07;;;;;;;11.10;6.22;;;11.40;74.10;;;;;;5032174;28;20048;-81
2023/04/06 09:18:33;;;;;;;11.38;7.75;;;11.50;70.00;;;;;;4999451;28;20049;-82
2023/04/06 09:21:02;;;;;;;11.98;7.40;;;11.50;72.70;;;;;;5031875;28;20140;-81
2023/04/06 09:23:28;;;;;;;13.05;8.75;;;11.50;72.60;;;;;;5032130;28;20054;-81
2023/04/06 09:26:16;;;;;;;13.70;7.20;;;11.60;68.10;;;;;;5032194;28;20435;-80
2023/04/06 09:28:43;;;;;;;15.35;9.18;;;11.70;70.40;;;;;;5015710;28;20493;-80
2023/04/06 09:31:09;;;;;;;15.10;9.40;;;11.70;69.30;;;;;;5032072;28;20103;-80
2023/04/06 09:33:39;;;;;;;13.95;9.93;;;11.80;70.60;;;;;;5031915;28;20049;-81
2023/04/06 09:36:06;;;;;;;14.82;9.68;;;11.90;71.40;;;;;;5031757;28;20055;-81
2023/04/06 09:38:31;;;;;;;14.05;8.18;;;12.10;69.80;;;;;;5032087;28;20053;-80
2023/04/06 09:40:57;;;;;;;15.10;9.88;;;12.30;71.60;;;;;;5031711;28;20049;-79
2023/04/06 09:43:27;;;;;;;14.55;9.30;;;12.50;68.90;;;;;;5015408;28;20385;-80
2023/04/06 09:45:55;;;;;;;14.65;9.55;;;12.50;67.80;;;;;;5031547;28;20045;-81
2023/04/06 09:48:22;;;;;;;13.88;7.97;;;12.40;66.30;;;;;;5018895;28;20057;-80
2023/04/06 09:50:57;;;;;;;15.57;9.27;;;12.20;63.60;;;;;;5019117;28;20053;-80
2023/04/06 09:53:28;;;;;;;14.93;9.98;;;11.90;67.60;;;;;;5035165;28;20041;-80
2023/04/06 09:56:00;;;;;;;15.88;9.02;;;11.90;68.00;;;;;;5035530;28;20058;-81
2023/04/06 09:58:27;;;;;;;18.13;12.15;;;11.90;65.70;;;;;;5035095;28;20096;-81
2023/04/06 10:01:10;;;;;;;18.77;13.07;;;12.00;67.20;;;;;;5035363;28;20417;-82
2023/04/06 10:03:49;;;;;;;17.58;11.73;;;12.10;65.80;;;;;;5035374;28;20052;-81
2023/04/06 10:06:19;;;;;;;17.38;13.20;;;12.10;65.30;;;;;;5018833;28;20041;-82
2023/04/06 10:08:49;;;;;;;18.40;13.25;;;12.10;66.40;;;;;;5035208;28;20547;-81
2023/04/06 10:11:16;;;;;;;18.73;13.13;;;12.10;64.40;;;;;;5035226;28;20048;-82
2023/04/06 10:13:42;;;;;;;17.98;12.23;;;12.20;64.40;;;;;;5035260;28;20045;-82
2023/04/06 10:16:09;;;;;;;19.50;13.68;;;12.20;63.50;;;;;;5035062;28;20057;-81
2023/04/06 10:18:36;;;;;;;17.60;12.77;;;12.20;63.90;;;;;;5018707;28;20045;-82
2023/04/06 10:21:15;;;;;;;16.40;10.57;;;12.20;64.20;;;;;;5002585;28;20092;-82
2023/04/06 10:23:51;;;;;;;21.00;13.18;;;12.40;63.70;;;;;;5034911;28;20489;-81
2023/04/06 10:26:20;;;;;;;20.77;12.57;;;12.30;62.00;;;;;;5034747;28;20508;-83
2023/04/06 10:28:47;;;;;;;17.95;12.40;;;12.30;61.20;;;;;;5034906;28;20088;-82
2023/04/06 10:31:14;;;;;;;20.02;13.48;;;12.40;61.50;;;;;;5034934;28;20058;-82
2023/04/06 10:33:41;;;;;;;20.42;12.90;;;12.60;64.40;;;;;;5034664;28;20091;-82
2023/04/06 10:36:26;;;;;;;18.33;14.25;;;12.80;64.80;;;;;;5018249;28;20041;-80
2023/04/06 10:39:00;;;;;;;20.10;14.82;;;13.10;65.10;;;;;;5018182;28;20132;-81
2023/04/06 10:41:52;;;;;;;21.30;14.57;;;13.40;67.10;;;;;;5018227;28;20052;-81
2023/04/06 10:44:25;;;;;;;18.63;15.35;;;13.50;58.70;;;;;;5014979;28;20444;-81
2023/04/06 10:46:56;;;;;;;19.55;14.82;;;13.40;65.40;;;;;;5017778;28;20497;-80
2023/04/06 10:49:22;;;;;;;20.43;15.43;;;13.50;61.40;;;;;;5001778;28;20053;-82
2023/04/06 10:51:53;;;;;;;21.17;15.25;;;13.60;61.40;;;;;;5034396;28;20106;-82
2023/04/06 10:54:21;;;;;;;19.77;14.95;;;13.60;63.40;;;;;;5034249;28;20049;-81
2023/04/06 10:56:47;;;;;;;19.95;15.68;;;13.70;60.70;;;;;;5001763;28;20057;-82
2023/04/06 10:59:18;;;;;;;20.08;15.20;;;13.80;62.60;;;;;;5034082;28;20064;-82
2023/04/06 11:01:45;;;;;;;19.63;16.27;;;14.00;64.00;;;;;;5034341;28;20060;-81
2023/04/06 11:04:15;;;;;;;23.00;16.25;;;14.30;61.70;;;;;;5017483;28;20049;-80
2023/04/06 11:06:41;;;;;;;20.98;15.70;;;14.30;59.30;;;;;;5033932;28;20045;-81
2023/04/06 11:09:08;;;;;;;21.75;16.27;;;14.20;58.20;;;;;;5034190;28;20048;-79
2023/04/06 11:11:39;;;;;;;19.88;16.15;;;13.90;58.80;;;;;;5017519;28;20041;-81
2023/04/06 11:14:05;;;;;;;23.83;17.85;;;13.80;59.60;;;;;;5034089;28;20405;-81
2023/04/06 11:16:32;;;;;;;22.65;15.52;;;13.80;62.90;;;;;;5034105;28;20045;-81
2023/04/06 11:19:03;;;;;;;21.98;17.20;;;14.00;59.40;;;;;;5017606;28;20053;-81
2023/04/06 11:21:39;;;;;;;22.88;17.75;;;14.20;61.60;;;;;;5033844;28;20080;-81
2023/04/06 11:24:10;;;;;;;21.70;17.88;;;14.40;58.60;;;;;;5033760;28;20057;-81
2023/04/06 11:26:40;;;;;;;23.80;18.23;;;14.40;58.20;;;;;;5033466;28;20049;-81
2023/04/06 11:29:06;;;;;;;23.60;17.80;;;14.30;58.20;;;;;;5017397;28;20045;-81
2023/04/06 11:31:47;;;;;;;20.65;15.10;;;14.30;58.80;;;;;;5033234;28;20124;-80
2023/04/06 11:34:19;;;;;;;23.30;17.70;;;14.40;54.30;;;;;;5033398;28;20075;-82
2023/04/06 11:36:48;;;;;;;24.67;18.45;;;14.20;54.30;;;;;;5033692;28;20056;-81
2023/04/06 11:39:19;;;;;;;19.65;13.18;;;14.20;53.90;;;;;;5033295;28;20033;-81
2023/04/06 11:41:52;;;;;;;23.40;16.42;;;14.10;54.50;;;;;;5033492;28;20102;-81
2023/04/06 11:44:39;;;;;;;19.77;12.55;;;14.00;57.40;;;;;;5017089;28;20136;-81
2023/04/06 11:47:09;;;;;;;22.63;15.60;;;14.10;55.80;;;;;;5016925;28;20053;-81
2023/04/06 11:49:45;;;;;;;21.33;17.13;;;14.00;53.30;;;;;;5033380;28;20053;-81
2023/04/06 11:52:29;;;;;;;17.02;10.68;;;13.90;55.20;;;;;;5033219;28;20132;-79
2023/04/06 11:54:57;;;;;;;25.33;18.10;;;14.00;54.80;;;;;;5032982;28;20409;-80
2023/04/06 11:57:25;;;;;;;17.77;11.13;;;13.90;57.00;;;;;;5016439;28;20053;-80
2023/04/06 11:59:51;;;;;;;15.45;8.98;;;14.00;55.50;;;;;;5033221;28;20079;-80
2023/04/06 12:02:17;;;;;;;24.05;17.65;;;13.90;55.10;;;;;;5032645;28;20049;-80
2023/04/06 12:04:43;;;;;;;24.63;18.77;;;13.80;55.20;;;;;;5016400;28;20084;-80
2023/04/06 12:07:09;;;;;;;20.50;14.02;;;13.70;59.00;;;;;;5032996;28;20055;-80
2023/04/06 12:09:36;;;;;;;24.17;15.88;;;13.60;56.80;;;;;;5032591;28;20448;-80
2023/04/06 12:12:03;;;;;;;23.73;17.38;;;13.60;58.80;;;;;;5032994;28;20077;-80
2023/04/06 12:14:30;;;;;;;25.17;18.45;;;13.20;56.60;;;;;;5032599;28;20042;-80
2023/04/06 12:16:57;;;;;;;25.73;19.35;;;13.40;59.50;;;;;;5032772;28;20053;-80
2023/04/06 12:19:25;;;;;;;23.83;18.65;;;13.50;59.00;;;;;;5032949;28;20088;-80
2023/04/06 12:21:53;;;;;;;24.25;18.58;;;13.60;55.80;;;;;;5016282;28;20136;-81
2023/04/06 12:24:19;;;;;;;24.13;16.45;;;13.60;56.60;;;;;;5032798;28;20516;-80
2023/04/06 12:26:45;;;;;;;26.10;19.42;;;13.60;54.60;;;;;;5032713;28;20060;-80
2023/04/06 12:29:12;;;;;;;24.70;17.95;;;13.70;55.70;;;;;;5033695;28;20054;-80
2023/04/06 12:31:40;;;;;;;21.27;14.38;;;13.70;55.80;;;;;;5032872;28;20057;-79
2023/04/06 12:34:07;;;;;;;22.70;19.08;;;13.80;54.20;;;;;;5016261;28;20045;-81
2023/04/06 12:36:33;;;;;;;24.63;20.02;;;13.70;55.00;;;;;;5032702;28;20409;-81
2023/04/06 12:39:00;;;;;;;25.20;19.75;;;13.70;56.30;;;;;;5032574;28;20042;-81
2023/04/06 12:41:27;;;;;;;25.45;18.90;;;13.80;56.40;;;;;;4999921;28;20055;-81
2023/04/06 12:43:53;;;;;;;25.13;19.80;;;13.90;55.10;;;;;;5032352;28;20159;-81